sensor_id;sensor_type;location;lat;lon;timestamp;pressure;altitude;pressure_sealevel;temperature
66170;BMP280;66757;44.024;20.456;2023-06-04T00:00:05;98221.84;;;16.86
66170;BMP280;66757;44.024;20.456;2023-06-04T00:02:31;98227.66;;;16.76
66170;BMP280;66757;44.024;20.456;2023-06-04T00:04:57;98223.72;;;16.74
66170;BMP280;66757;44.024;20.456;2023-06-04T00:07:22;98224.88;;;16.73
66170;BMP280;66757;44.024;20.456;2023-06-04T00:09:48;98225.47;;;16.78
66170;BMP280;66757;44.024;20.456;2023-06-04T00:12:14;98218.41;;;16.62
66170;BMP280;66757;44.024;20.456;2023-06-04T00:14:39;98221.50;;;16.76
66170;BMP280;66757;44.024;20.456;2023-06-04T00:17:05;98220.72;;;16.75
66170;BMP280;66757;44.024;20.456;2023-06-04T00:19:30;98220.06;;;16.54
66170;BMP280;66757;44.024;20.456;2023-06-04T00:21:56;98216.63;;;16.66
66170;BMP280;66757;44.024;20.456;2023-06-04T00:24:21;98216.84;;;16.61
66170;BMP280;66757;44.024;20.456;2023-06-04T00:26:47;98218.88;;;16.52
66170;BMP280;66757;44.024;20.456;2023-06-04T00:29:12;98212.16;;;16.58
66170;BMP280;66757;44.024;20.456;2023-06-04T00:31:38;98215.16;;;16.56
66170;BMP280;66757;44.024;20.456;2023-06-04T00:34:04;98224.09;;;16.60
66170;BMP280;66757;44.024;20.456;2023-06-04T00:36:30;98218.63;;;16.57
66170;BMP280;66757;44.024;20.456;2023-06-04T00:38:55;98219.06;;;16.59
66170;BMP280;66757;44.024;20.456;2023-06-04T00:41:21;98218.09;;;16.63
66170;BMP280;66757;44.024;20.456;2023-06-04T00:43:46;98226.13;;;16.63
66170;BMP280;66757;44.024;20.456;2023-06-04T00:46:21;98216.03;;;16.60
66170;BMP280;66757;44.024;20.456;2023-06-04T00:48:46;98219.19;;;16.62
66170;BMP280;66757;44.024;20.456;2023-06-04T00:51:12;98211.69;;;16.43
66170;BMP280;66757;44.024;20.456;2023-06-04T00:53:38;98210.34;;;16.25
66170;BMP280;66757;44.024;20.456;2023-06-04T00:56:04;98210.41;;;16.17
66170;BMP280;66757;44.024;20.456;2023-06-04T00:58:32;98217.03;;;16.31
66170;BMP280;66757;44.024;20.456;2023-06-04T01:00:59;98214.69;;;16.30
66170;BMP280;66757;44.024;20.456;2023-06-04T01:03:28;98211.59;;;16.40
66170;BMP280;66757;44.024;20.456;2023-06-04T01:06:13;98211.94;;;16.50
66170;BMP280;66757;44.024;20.456;2023-06-04T01:08:49;98205.47;;;16.52
66170;BMP280;66757;44.024;20.456;2023-06-04T01:11:16;98210.25;;;16.46
66170;BMP280;66757;44.024;20.456;2023-06-04T01:13:41;98212.25;;;16.49
66170;BMP280;66757;44.024;20.456;2023-06-04T01:16:08;98217.28;;;16.63
66170;BMP280;66757;44.024;20.456;2023-06-04T01:18:37;98213.28;;;16.57
66170;BMP280;66757;44.024;20.456;2023-06-04T01:21:08;98209.47;;;16.70
66170;BMP280;66757;44.024;20.456;2023-06-04T01:23:50;98207.44;;;16.42
66170;BMP280;66757;44.024;20.456;2023-06-04T01:26:29;98206.16;;;15.91
66170;BMP280;66757;44.024;20.456;2023-06-04T01:28:55;98212.78;;;15.85
66170;BMP280;66757;44.024;20.456;2023-06-04T01:31:22;98212.25;;;16.25
66170;BMP280;66757;44.024;20.456;2023-06-04T01:33:55;98206.63;;;16.18
66170;BMP280;66757;44.024;20.456;2023-06-04T01:36:24;98220.16;;;15.88
66170;BMP280;66757;44.024;20.456;2023-06-04T01:38:50;98212.63;;;16.02
66170;BMP280;66757;44.024;20.456;2023-06-04T01:41:16;98207.34;;;16.39
66170;BMP280;66757;44.024;20.456;2023-06-04T01:43:41;98206.78;;;16.45
66170;BMP280;66757;44.024;20.456;2023-06-04T01:46:07;98206.00;;;16.45
66170;BMP280;66757;44.024;20.456;2023-06-04T01:48:32;98216.44;;;16.13
66170;BMP280;66757;44.024;20.456;2023-06-04T01:50:58;98217.16;;;15.90
66170;BMP280;66757;44.024;20.456;2023-06-04T01:53:24;98215.44;;;16.18
66170;BMP280;66757;44.024;20.456;2023-06-04T01:55:49;98218.41;;;16.62
66170;BMP280;66757;44.024;20.456;2023-06-04T01:58:15;98212.06;;;16.66
66170;BMP280;66757;44.024;20.456;2023-06-04T02:00:53;98220.41;;;16.65
66170;BMP280;66757;44.024;20.456;2023-06-04T02:03:20;98216.03;;;16.24
66170;BMP280;66757;44.024;20.456;2023-06-04T02:05:45;98210.38;;;15.92
66170;BMP280;66757;44.024;20.456;2023-06-04T02:08:14;98212.47;;;16.20
66170;BMP280;66757;44.024;20.456;2023-06-04T02:10:45;98203.72;;;15.98
66170;BMP280;66757;44.024;20.456;2023-06-04T02:13:12;98204.91;;;15.89
66170;BMP280;66757;44.024;20.456;2023-06-04T02:15:38;98203.94;;;15.93
66170;BMP280;66757;44.024;20.456;2023-06-04T02:18:14;98208.03;;;16.36
66170;BMP280;66757;44.024;20.456;2023-06-04T02:20:45;98220.31;;;16.37
66170;BMP280;66757;44.024;20.456;2023-06-04T02:23:11;98214.59;;;16.26
66170;BMP280;66757;44.024;20.456;2023-06-04T02:25:36;98216.41;;;16.01
66170;BMP280;66757;44.024;20.456;2023-06-04T02:28:02;98222.44;;;15.65
66170;BMP280;66757;44.024;20.456;2023-06-04T02:30:27;98219.81;;;15.36
66170;BMP280;66757;44.024;20.456;2023-06-04T02:32:53;98218.50;;;15.63
66170;BMP280;66757;44.024;20.456;2023-06-04T02:35:20;98219.34;;;16.08
66170;BMP280;66757;44.024;20.456;2023-06-04T02:37:49;98215.34;;;16.15
66170;BMP280;66757;44.024;20.456;2023-06-04T02:40:14;98206.84;;;16.12
66170;BMP280;66757;44.024;20.456;2023-06-04T02:42:40;98209.38;;;15.97
66170;BMP280;66757;44.024;20.456;2023-06-04T02:45:06;98216.41;;;16.01
66170;BMP280;66757;44.024;20.456;2023-06-04T02:47:31;98218.69;;;16.24
66170;BMP280;66757;44.024;20.456;2023-06-04T02:49:57;98230.72;;;16.18
66170;BMP280;66757;44.024;20.456;2023-06-04T02:52:22;98224.66;;;15.96
66170;BMP280;66757;44.024;20.456;2023-06-04T02:54:50;98213.78;;;16.13
66170;BMP280;66757;44.024;20.456;2023-06-04T02:57:16;98221.44;;;16.03
66170;BMP280;66757;44.024;20.456;2023-06-04T02:59:41;98228.00;;;15.93
66170;BMP280;66757;44.024;20.456;2023-06-04T03:02:07;98236.03;;;15.93
66170;BMP280;66757;44.024;20.456;2023-06-04T03:04:32;98233.44;;;15.64
66170;BMP280;66757;44.024;20.456;2023-06-04T03:07:02;98234.44;;;15.59
66170;BMP280;66757;44.024;20.456;2023-06-04T03:09:30;98240.44;;;15.77
66170;BMP280;66757;44.024;20.456;2023-06-04T03:11:59;98237.97;;;15.84
66170;BMP280;66757;44.024;20.456;2023-06-04T03:14:25;98235.09;;;15.77
66170;BMP280;66757;44.024;20.456;2023-06-04T03:17:00;98230.31;;;15.95
66170;BMP280;66757;44.024;20.456;2023-06-04T03:19:35;98227.38;;;15.34
66170;BMP280;66757;44.024;20.456;2023-06-04T03:22:01;98233.69;;;15.29
66170;BMP280;66757;44.024;20.456;2023-06-04T03:24:30;98239.50;;;15.94
66170;BMP280;66757;44.024;20.456;2023-06-04T03:26:55;98226.00;;;16.02
66170;BMP280;66757;44.024;20.456;2023-06-04T03:29:21;98235.59;;;16.03
66170;BMP280;66757;44.024;20.456;2023-06-04T03:31:46;98239.97;;;15.75
66170;BMP280;66757;44.024;20.456;2023-06-04T03:34:12;98235.66;;;15.62
66170;BMP280;66757;44.024;20.456;2023-06-04T03:36:37;98240.53;;;15.81
66170;BMP280;66757;44.024;20.456;2023-06-04T03:39:03;98243.47;;;16.00
66170;BMP280;66757;44.024;20.456;2023-06-04T03:41:30;98247.31;;;16.11
66170;BMP280;66757;44.024;20.456;2023-06-04T03:43:56;98248.09;;;15.99
66170;BMP280;66757;44.024;20.456;2023-06-04T03:46:21;98244.56;;;15.87
66170;BMP280;66757;44.024;20.456;2023-06-04T03:48:46;98250.03;;;15.78
66170;BMP280;66757;44.024;20.456;2023-06-04T03:51:12;98245.72;;;15.98
66170;BMP280;66757;44.024;20.456;2023-06-04T03:53:37;98252.50;;;15.95
66170;BMP280;66757;44.024;20.456;2023-06-04T03:56:03;98252.91;;;15.85
66170;BMP280;66757;44.024;20.456;2023-06-04T03:58:28;98250.56;;;15.84
66170;BMP280;66757;44.024;20.456;2023-06-04T04:00:54;98239.44;;;16.15
66170;BMP280;66757;44.024;20.456;2023-06-04T04:03:20;98229.50;;;16.27
66170;BMP280;66757;44.024;20.456;2023-06-04T04:05:45;98240.50;;;16.01
66170;BMP280;66757;44.024;20.456;2023-06-04T04:08:11;98236.56;;;16.32
66170;BMP280;66757;44.024;20.456;2023-06-04T04:10:37;98240.06;;;16.11
66170;BMP280;66757;44.024;20.456;2023-06-04T04:13:02;98239.75;;;15.80
66170;BMP280;66757;44.024;20.456;2023-06-04T04:15:28;98247.00;;;15.80
66170;BMP280;66757;44.024;20.456;2023-06-04T04:17:54;98237.59;;;15.73
66170;BMP280;66757;44.024;20.456;2023-06-04T04:20:20;98242.50;;;15.92
66170;BMP280;66757;44.024;20.456;2023-06-04T04:22:46;98247.63;;;15.97
66170;BMP280;66757;44.024;20.456;2023-06-04T04:25:11;98254.31;;;16.03
66170;BMP280;66757;44.024;20.456;2023-06-04T04:27:37;98246.47;;;16.19
66170;BMP280;66757;44.024;20.456;2023-06-04T04:30:06;98252.72;;;16.23
66170;BMP280;66757;44.024;20.456;2023-06-04T04:32:32;98257.47;;;16.05
66170;BMP280;66757;44.024;20.456;2023-06-04T04:34:57;98255.25;;;16.07
66170;BMP280;66757;44.024;20.456;2023-06-04T04:37:24;98256.41;;;16.31
66170;BMP280;66757;44.024;20.456;2023-06-04T04:39:49;98256.31;;;16.39
66170;BMP280;66757;44.024;20.456;2023-06-04T04:42:18;98262.59;;;16.56
66170;BMP280;66757;44.024;20.456;2023-06-04T04:44:44;98261.91;;;16.59
66170;BMP280;66757;44.024;20.456;2023-06-04T04:47:16;98262.91;;;16.42
66170;BMP280;66757;44.024;20.456;2023-06-04T04:49:41;98254.88;;;16.42
66170;BMP280;66757;44.024;20.456;2023-06-04T04:52:07;98253.97;;;16.38
66170;BMP280;66757;44.024;20.456;2023-06-04T04:54:33;98255.72;;;16.22
66170;BMP280;66757;44.024;20.456;2023-06-04T04:56:58;98261.56;;;16.60
66170;BMP280;66757;44.024;20.456;2023-06-04T04:59:23;98262.00;;;16.38
66170;BMP280;66757;44.024;20.456;2023-06-04T05:01:49;98256.53;;;16.46
66170;BMP280;66757;44.024;20.456;2023-06-04T05:04:14;98262.56;;;16.31
66170;BMP280;66757;44.024;20.456;2023-06-04T05:06:40;98254.09;;;16.41
66170;BMP280;66757;44.024;20.456;2023-06-04T05:09:05;98266.78;;;16.20
66170;BMP280;66757;44.024;20.456;2023-06-04T05:11:32;98263.28;;;16.53
66170;BMP280;66757;44.024;20.456;2023-06-04T05:13:58;98261.03;;;16.55
66170;BMP280;66757;44.024;20.456;2023-06-04T05:16:23;98268.81;;;16.60
66170;BMP280;66757;44.024;20.456;2023-06-04T05:18:50;98271.19;;;16.61
66170;BMP280;66757;44.024;20.456;2023-06-04T05:21:17;98266.63;;;16.86
66170;BMP280;66757;44.024;20.456;2023-06-04T05:23:43;98272.41;;;17.12
66170;BMP280;66757;44.024;20.456;2023-06-04T05:26:10;98268.50;;;17.10
66170;BMP280;66757;44.024;20.456;2023-06-04T05:28:35;98273.00;;;16.94
66170;BMP280;66757;44.024;20.456;2023-06-04T05:31:01;98276.66;;;16.89
66170;BMP280;66757;44.024;20.456;2023-06-04T05:33:29;98276.66;;;16.77
66170;BMP280;66757;44.024;20.456;2023-06-04T05:35:55;98281.13;;;17.09
66170;BMP280;66757;44.024;20.456;2023-06-04T05:38:24;98281.66;;;17.15
66170;BMP280;66757;44.024;20.456;2023-06-04T05:40:51;98287.91;;;17.31
66170;BMP280;66757;44.024;20.456;2023-06-04T05:43:17;98298.16;;;17.41
66170;BMP280;66757;44.024;20.456;2023-06-04T05:45:43;98294.13;;;17.47
66170;BMP280;66757;44.024;20.456;2023-06-04T05:48:08;98303.69;;;17.60
66170;BMP280;66757;44.024;20.456;2023-06-04T05:50:34;98304.47;;;17.61
66170;BMP280;66757;44.024;20.456;2023-06-04T05:52:59;98305.19;;;17.86
66170;BMP280;66757;44.024;20.456;2023-06-04T05:55:25;98315.75;;;17.94
66170;BMP280;66757;44.024;20.456;2023-06-04T05:57:50;98318.22;;;17.99
66170;BMP280;66757;44.024;20.456;2023-06-04T06:00:19;98327.03;;;17.72
66170;BMP280;66757;44.024;20.456;2023-06-04T06:02:44;98326.41;;;17.91
66170;BMP280;66757;44.024;20.456;2023-06-04T06:05:10;98319.06;;;17.88
66170;BMP280;66757;44.024;20.456;2023-06-04T06:07:36;98321.13;;;17.94
66170;BMP280;66757;44.024;20.456;2023-06-04T06:10:02;98320.59;;;18.17
66170;BMP280;66757;44.024;20.456;2023-06-04T06:12:28;98322.13;;;18.02
66170;BMP280;66757;44.024;20.456;2023-06-04T06:14:54;98326.44;;;18.34
66170;BMP280;66757;44.024;20.456;2023-06-04T06:17:19;98328.19;;;18.58
66170;BMP280;66757;44.024;20.456;2023-06-04T06:19:45;98329.13;;;18.81
66170;BMP280;66757;44.024;20.456;2023-06-04T06:22:10;98332.22;;;18.99
66170;BMP280;66757;44.024;20.456;2023-06-04T06:24:36;98341.41;;;19.14
66170;BMP280;66757;44.024;20.456;2023-06-04T06:27:02;98339.06;;;19.12
66170;BMP280;66757;44.024;20.456;2023-06-04T06:29:28;98340.56;;;19.29
66170;BMP280;66757;44.024;20.456;2023-06-04T06:31:53;98333.53;;;19.40
66170;BMP280;66757;44.024;20.456;2023-06-04T06:34:19;98348.78;;;19.71
66170;BMP280;66757;44.024;20.456;2023-06-04T06:36:44;98343.91;;;19.77
66170;BMP280;66757;44.024;20.456;2023-06-04T06:39:09;98343.66;;;19.85
66170;BMP280;66757;44.024;20.456;2023-06-04T06:41:36;98342.47;;;20.02
66170;BMP280;66757;44.024;20.456;2023-06-04T06:44:04;98346.25;;;20.20
66170;BMP280;66757;44.024;20.456;2023-06-04T06:46:29;98338.31;;;20.50
66170;BMP280;66757;44.024;20.456;2023-06-04T06:48:55;98347.28;;;20.58
66170;BMP280;66757;44.024;20.456;2023-06-04T06:51:20;98346.16;;;20.81
66170;BMP280;66757;44.024;20.456;2023-06-04T06:53:46;98349.47;;;20.75
66170;BMP280;66757;44.024;20.456;2023-06-04T06:56:11;98350.34;;;20.79
66170;BMP280;66757;44.024;20.456;2023-06-04T06:58:37;98354.94;;;21.05
66170;BMP280;66757;44.024;20.456;2023-06-04T07:01:02;98346.69;;;21.20
66170;BMP280;66757;44.024;20.456;2023-06-04T07:03:27;98345.47;;;20.88
66170;BMP280;66757;44.024;20.456;2023-06-04T07:05:53;98351.78;;;20.73
66170;BMP280;66757;44.024;20.456;2023-06-04T07:08:18;98349.09;;;20.73
66170;BMP280;66757;44.024;20.456;2023-06-04T07:10:44;98343.84;;;20.83
66170;BMP280;66757;44.024;20.456;2023-06-04T07:13:10;98353.31;;;20.97
66170;BMP280;66757;44.024;20.456;2023-06-04T07:15:35;98344.09;;;21.27
66170;BMP280;66757;44.024;20.456;2023-06-04T07:18:01;98346.09;;;21.34
66170;BMP280;66757;44.024;20.456;2023-06-04T07:20:26;98343.13;;;21.39
66170;BMP280;66757;44.024;20.456;2023-06-04T07:22:51;98343.03;;;21.65
66170;BMP280;66757;44.024;20.456;2023-06-04T07:25:17;98341.66;;;21.79
66170;BMP280;66757;44.024;20.456;2023-06-04T07:27:42;98349.03;;;21.82
66170;BMP280;66757;44.024;20.456;2023-06-04T07:30:09;98348.56;;;22.13
66170;BMP280;66757;44.024;20.456;2023-06-04T07:32:34;98347.22;;;22.33
66170;BMP280;66757;44.024;20.456;2023-06-04T07:35:01;98349.22;;;22.03
66170;BMP280;66757;44.024;20.456;2023-06-04T07:37:26;98345.25;;;22.30
66170;BMP280;66757;44.024;20.456;2023-06-04T07:39:52;98347.69;;;22.02
66170;BMP280;66757;44.024;20.456;2023-06-04T07:42:17;98348.53;;;21.76
66170;BMP280;66757;44.024;20.456;2023-06-04T07:44:43;98344.56;;;21.33
66170;BMP280;66757;44.024;20.456;2023-06-04T07:47:08;98345.97;;;21.23
66170;BMP280;66757;44.024;20.456;2023-06-04T07:49:34;98359.16;;;21.28
66170;BMP280;66757;44.024;20.456;2023-06-04T07:51:59;98354.53;;;20.31
66170;BMP280;66757;44.024;20.456;2023-06-04T07:54:25;98353.06;;;20.56
66170;BMP280;66757;44.024;20.456;2023-06-04T07:56:51;98359.91;;;20.76
66170;BMP280;66757;44.024;20.456;2023-06-04T07:59:22;98354.84;;;21.24
66170;BMP280;66757;44.024;20.456;2023-06-04T08:01:51;98360.34;;;21.05
66170;BMP280;66757;44.024;20.456;2023-06-04T08:04:18;98359.34;;;20.64
66170;BMP280;66757;44.024;20.456;2023-06-04T08:06:43;98366.50;;;21.05
66170;BMP280;66757;44.024;20.456;2023-06-04T08:09:09;98363.75;;;20.98
66170;BMP280;66757;44.024;20.456;2023-06-04T08:11:35;98364.06;;;20.70
66170;BMP280;66757;44.024;20.456;2023-06-04T08:14:01;98362.56;;;20.50
66170;BMP280;66757;44.024;20.456;2023-06-04T08:16:27;98362.84;;;20.45
66170;BMP280;66757;44.024;20.456;2023-06-04T08:18:52;98367.66;;;21.04
66170;BMP280;66757;44.024;20.456;2023-06-04T08:21:25;98375.06;;;20.84
66170;BMP280;66757;44.024;20.456;2023-06-04T08:23:51;98369.88;;;20.72
66170;BMP280;66757;44.024;20.456;2023-06-04T08:26:16;98369.78;;;20.91
66170;BMP280;66757;44.024;20.456;2023-06-04T08:28:42;98369.00;;;20.45
66170;BMP280;66757;44.024;20.456;2023-06-04T08:31:08;98369.03;;;20.68
66170;BMP280;66757;44.024;20.456;2023-06-04T08:33:33;98376.72;;;20.92
66170;BMP280;66757;44.024;20.456;2023-06-04T08:35:59;98372.91;;;20.48
66170;BMP280;66757;44.024;20.456;2023-06-04T08:38:24;98370.59;;;19.85
66170;BMP280;66757;44.024;20.456;2023-06-04T08:40:53;98365.88;;;19.79
66170;BMP280;66757;44.024;20.456;2023-06-04T08:43:21;98363.78;;;20.11
66170;BMP280;66757;44.024;20.456;2023-06-04T08:45:49;98370.78;;;20.15
66170;BMP280;66757;44.024;20.456;2023-06-04T08:48:18;98367.00;;;20.39
66170;BMP280;66757;44.024;20.456;2023-06-04T08:50:47;98366.31;;;20.45
66170;BMP280;66757;44.024;20.456;2023-06-04T08:53:15;98366.53;;;20.56
66170;BMP280;66757;44.024;20.456;2023-06-04T08:55:40;98361.19;;;20.37
66170;BMP280;66757;44.024;20.456;2023-06-04T08:58:07;98368.00;;;20.31
66170;BMP280;66757;44.024;20.456;2023-06-04T09:00:35;98366.47;;;20.53
66170;BMP280;66757;44.024;20.456;2023-06-04T09:03:02;98378.41;;;21.01
66170;BMP280;66757;44.024;20.456;2023-06-04T09:05:30;98378.81;;;21.29
66170;BMP280;66757;44.024;20.456;2023-06-04T09:08:00;98370.78;;;21.36
66170;BMP280;66757;44.024;20.456;2023-06-04T09:10:26;98362.59;;;21.55
66170;BMP280;66757;44.024;20.456;2023-06-04T09:12:55;98359.34;;;21.76
66170;BMP280;66757;44.024;20.456;2023-06-04T09:15:22;98363.63;;;21.81
66170;BMP280;66757;44.024;20.456;2023-06-04T09:17:47;98373.91;;;21.98
66170;BMP280;66757;44.024;20.456;2023-06-04T09:20:22;98370.28;;;21.87
66170;BMP280;66757;44.024;20.456;2023-06-04T09:22:48;98372.81;;;21.72
66170;BMP280;66757;44.024;20.456;2023-06-04T09:25:26;98370.19;;;21.46
66170;BMP280;66757;44.024;20.456;2023-06-04T09:27:56;98369.13;;;21.54
66170;BMP280;66757;44.024;20.456;2023-06-04T09:30:22;98366.50;;;21.61
66170;BMP280;66757;44.024;20.456;2023-06-04T09:32:48;98370.94;;;21.17
66170;BMP280;66757;44.024;20.456;2023-06-04T09:35:15;98370.03;;;21.65
66170;BMP280;66757;44.024;20.456;2023-06-04T09:37:42;98372.25;;;21.90
66170;BMP280;66757;44.024;20.456;2023-06-04T09:40:09;98369.63;;;21.63
66170;BMP280;66757;44.024;20.456;2023-06-04T09:42:45;98372.66;;;21.95
66170;BMP280;66757;44.024;20.456;2023-06-04T09:45:11;98360.31;;;21.91
66170;BMP280;66757;44.024;20.456;2023-06-04T09:47:44;98371.50;;;22.26
66170;BMP280;66757;44.024;20.456;2023-06-04T09:50:12;98366.97;;;22.92
66170;BMP280;66757;44.024;20.456;2023-06-04T09:52:38;98373.41;;;21.92
66170;BMP280;66757;44.024;20.456;2023-06-04T09:55:25;98368.97;;;22.51
66170;BMP280;66757;44.024;20.456;2023-06-04T09:57:52;98377.28;;;22.28
66170;BMP280;66757;44.024;20.456;2023-06-04T10:00:20;98371.13;;;22.75
66170;BMP280;66757;44.024;20.456;2023-06-04T10:02:50;98369.00;;;22.54
66170;BMP280;66757;44.024;20.456;2023-06-04T10:05:16;98377.69;;;22.34
66170;BMP280;66757;44.024;20.456;2023-06-04T10:07:46;98369.97;;;22.80
66170;BMP280;66757;44.024;20.456;2023-06-04T10:10:16;98372.06;;;23.04
66170;BMP280;66757;44.024;20.456;2023-06-04T10:12:42;98369.91;;;23.34
66170;BMP280;66757;44.024;20.456;2023-06-04T10:15:12;98368.69;;;22.63
66170;BMP280;66757;44.024;20.456;2023-06-04T10:17:39;98377.81;;;22.07
66170;BMP280;66757;44.024;20.456;2023-06-04T10:20:06;98375.28;;;21.85
66170;BMP280;66757;44.024;20.456;2023-06-04T10:22:34;98380.09;;;21.68
66170;BMP280;66757;44.024;20.456;2023-06-04T10:25:00;98382.03;;;21.68
66170;BMP280;66757;44.024;20.456;2023-06-04T10:27:26;98376.44;;;21.87
66170;BMP280;66757;44.024;20.456;2023-06-04T10:29:53;98377.59;;;22.23
66170;BMP280;66757;44.024;20.456;2023-06-04T10:32:18;98367.31;;;22.39
66170;BMP280;66757;44.024;20.456;2023-06-04T10:34:46;98365.94;;;22.15
66170;BMP280;66757;44.024;20.456;2023-06-04T10:37:22;98366.09;;;22.26
66170;BMP280;66757;44.024;20.456;2023-06-04T10:39:52;98365.09;;;22.48
66170;BMP280;66757;44.024;20.456;2023-06-04T10:42:18;98359.38;;;23.15
66170;BMP280;66757;44.024;20.456;2023-06-04T10:44:47;98364.91;;;23.40
66170;BMP280;66757;44.024;20.456;2023-06-04T10:47:23;98357.97;;;23.42
66170;BMP280;66757;44.024;20.456;2023-06-04T10:49:53;98353.81;;;23.84
66170;BMP280;66757;44.024;20.456;2023-06-04T10:52:19;98361.66;;;24.49
66170;BMP280;66757;44.024;20.456;2023-06-04T10:54:46;98374.44;;;26.30
66170;BMP280;66757;44.024;20.456;2023-06-04T10:57:17;98364.63;;;27.71
66170;BMP280;66757;44.024;20.456;2023-06-04T11:00:03;98340.19;;;28.14
66170;BMP280;66757;44.024;20.456;2023-06-04T11:02:34;98354.06;;;28.86
66170;BMP280;66757;44.024;20.456;2023-06-04T11:05:04;98337.06;;;28.78
66170;BMP280;66757;44.024;20.456;2023-06-04T11:07:46;98333.06;;;26.86
66170;BMP280;66757;44.024;20.456;2023-06-04T11:10:13;98332.25;;;26.11
66170;BMP280;66757;44.024;20.456;2023-06-04T11:15:08;98334.28;;;25.31
66170;BMP280;66757;44.024;20.456;2023-06-04T11:17:34;98336.34;;;25.05
66170;BMP280;66757;44.024;20.456;2023-06-04T11:19:59;98329.41;;;24.94
66170;BMP280;66757;44.024;20.456;2023-06-04T11:22:25;98334.06;;;24.93
66170;BMP280;66757;44.024;20.456;2023-06-04T11:25:01;98327.84;;;24.93
66170;BMP280;66757;44.024;20.456;2023-06-04T11:27:27;98331.56;;;25.38
66170;BMP280;66757;44.024;20.456;2023-06-04T11:29:53;98321.69;;;25.65
66170;BMP280;66757;44.024;20.456;2023-06-04T11:32:22;98330.88;;;25.85
66170;BMP280;66757;44.024;20.456;2023-06-04T11:34:48;98329.34;;;25.84
66170;BMP280;66757;44.024;20.456;2023-06-04T11:37:14;98320.91;;;26.20
66170;BMP280;66757;44.024;20.456;2023-06-04T11:39:40;98321.31;;;25.66
66170;BMP280;66757;44.024;20.456;2023-06-04T11:42:08;98323.84;;;25.29
66170;BMP280;66757;44.024;20.456;2023-06-04T11:44:34;98322.03;;;24.94
66170;BMP280;66757;44.024;20.456;2023-06-04T11:46:59;98314.66;;;24.98
66170;BMP280;66757;44.024;20.456;2023-06-04T11:49:25;98312.47;;;25.52
66170;BMP280;66757;44.024;20.456;2023-06-04T11:51:52;98319.19;;;25.26
66170;BMP280;66757;44.024;20.456;2023-06-04T11:54:19;98320.09;;;24.98
66170;BMP280;66757;44.024;20.456;2023-06-04T11:56:46;98317.78;;;24.75
66170;BMP280;66757;44.024;20.456;2023-06-04T11:59:14;98318.22;;;24.67
66170;BMP280;66757;44.024;20.456;2023-06-04T12:01:44;98323.91;;;25.04
66170;BMP280;66757;44.024;20.456;2023-06-04T12:04:17;98326.13;;;25.31
66170;BMP280;66757;44.024;20.456;2023-06-04T12:06:56;98320.75;;;25.23
66170;BMP280;66757;44.024;20.456;2023-06-04T12:09:32;98320.84;;;25.02
66170;BMP280;66757;44.024;20.456;2023-06-04T12:12:04;98313.09;;;25.01
66170;BMP280;66757;44.024;20.456;2023-06-04T12:14:31;98313.19;;;24.65
66170;BMP280;66757;44.024;20.456;2023-06-04T12:17:00;98311.06;;;25.26
66170;BMP280;66757;44.024;20.456;2023-06-04T12:19:27;98305.94;;;25.39
66170;BMP280;66757;44.024;20.456;2023-06-04T12:22:04;98298.03;;;25.62
66170;BMP280;66757;44.024;20.456;2023-06-04T12:24:34;98312.66;;;25.82
66170;BMP280;66757;44.024;20.456;2023-06-04T12:27:05;98310.03;;;25.68
66170;BMP280;66757;44.024;20.456;2023-06-04T12:29:31;98306.66;;;25.50
66170;BMP280;66757;44.024;20.456;2023-06-04T12:32:07;98297.44;;;25.37
66170;BMP280;66757;44.024;20.456;2023-06-04T12:34:37;98291.78;;;25.68
66170;BMP280;66757;44.024;20.456;2023-06-04T12:37:02;98292.97;;;25.60
66170;BMP280;66757;44.024;20.456;2023-06-04T12:39:32;98287.69;;;25.94
66170;BMP280;66757;44.024;20.456;2023-06-04T12:41:58;98283.75;;;26.02
66170;BMP280;66757;44.024;20.456;2023-06-04T12:44:24;98288.09;;;25.96
66170;BMP280;66757;44.024;20.456;2023-06-04T12:46:50;98272.91;;;26.40
66170;BMP280;66757;44.024;20.456;2023-06-04T12:49:15;98273.22;;;26.49
66170;BMP280;66757;44.024;20.456;2023-06-04T12:51:41;98266.13;;;26.17
66170;BMP280;66757;44.024;20.456;2023-06-04T12:54:06;98264.84;;;25.88
66170;BMP280;66757;44.024;20.456;2023-06-04T12:56:32;98261.94;;;26.13
66170;BMP280;66757;44.024;20.456;2023-06-04T12:58:58;98263.97;;;26.39
66170;BMP280;66757;44.024;20.456;2023-06-04T13:01:24;98265.91;;;26.42
66170;BMP280;66757;44.024;20.456;2023-06-04T13:03:49;98265.81;;;26.12
66170;BMP280;66757;44.024;20.456;2023-06-04T13:06:15;98254.81;;;26.26
66170;BMP280;66757;44.024;20.456;2023-06-04T13:08:40;98248.22;;;25.83
66170;BMP280;66757;44.024;20.456;2023-06-04T13:11:06;98259.38;;;25.92
66170;BMP280;66757;44.024;20.456;2023-06-04T13:13:31;98252.03;;;25.89
66170;BMP280;66757;44.024;20.456;2023-06-04T13:15:57;98251.13;;;26.02
66170;BMP280;66757;44.024;20.456;2023-06-04T13:18:23;98247.16;;;26.10
66170;BMP280;66757;44.024;20.456;2023-06-04T13:20:48;98254.34;;;26.31
66170;BMP280;66757;44.024;20.456;2023-06-04T13:23:14;98247.41;;;25.86
66170;BMP280;66757;44.024;20.456;2023-06-04T13:25:40;98249.38;;;25.82
66170;BMP280;66757;44.024;20.456;2023-06-04T13:28:06;98243.13;;;25.85
66170;BMP280;66757;44.024;20.456;2023-06-04T13:30:35;98254.94;;;26.12
66170;BMP280;66757;44.024;20.456;2023-06-04T13:33:01;98243.47;;;25.90
66170;BMP280;66757;44.024;20.456;2023-06-04T13:35:26;98244.03;;;25.67
66170;BMP280;66757;44.024;20.456;2023-06-04T13:37:52;98243.09;;;25.88
66170;BMP280;66757;44.024;20.456;2023-06-04T13:40:17;98247.59;;;26.05
66170;BMP280;66757;44.024;20.456;2023-06-04T13:42:43;98250.41;;;25.95
66170;BMP280;66757;44.024;20.456;2023-06-04T13:45:09;98255.19;;;25.84
66170;BMP280;66757;44.024;20.456;2023-06-04T13:47:34;98255.03;;;25.50
66170;BMP280;66757;44.024;20.456;2023-06-04T13:50:01;98257.91;;;25.25
66170;BMP280;66757;44.024;20.456;2023-06-04T13:52:26;98265.03;;;24.94
66170;BMP280;66757;44.024;20.456;2023-06-04T13:54:54;98251.69;;;25.28
66170;BMP280;66757;44.024;20.456;2023-06-04T13:57:20;98247.59;;;25.57